sensor_id;sensor_type;location;lat;lon;timestamp;P1;durP1;ratioP1;P2;durP2;ratioP2
35245;SDS011;21379;50.962;6.960;2023-08-07T00:01:34;9.13;;;2.70;;
35245;SDS011;21379;50.962;6.960;2023-08-07T00:04:01;7.68;;;2.70;;
35245;SDS011;21379;50.962;6.960;2023-08-07T00:06:29;9.00;;;2.63;;
35245;SDS011;21379;50.962;6.960;2023-08-07T00:08:56;15.55;;;3.17;;
35245;SDS011;21379;50.962;6.960;2023-08-07T00:11:23;11.13;;;2.15;;
35245;SDS011;21379;50.962;6.960;2023-08-07T00:13:49;4.45;;;2.00;;
35245;SDS011;21379;50.962;6.960;2023-08-07T00:16:16;10.18;;;3.13;;
35245;SDS011;21379;50.962;6.960;2023-08-07T00:18:43;11.88;;;2.88;;
35245;SDS011;21379;50.962;6.960;2023-08-07T00:21:09;12.02;;;3.15;;
35245;SDS011;21379;50.962;6.960;2023-08-07T00:23:37;8.95;;;2.50;;
35245;SDS011;21379;50.962;6.960;2023-08-07T00:26:04;11.77;;;2.80;;
35245;SDS011;21379;50.962;6.960;2023-08-07T00:28:31;10.23;;;2.63;;
35245;SDS011;21379;50.962;6.960;2023-08-07T00:30:57;11.15;;;2.53;;
35245;SDS011;21379;50.962;6.960;2023-08-07T00:33:24;12.60;;;3.00;;
35245;SDS011;21379;50.962;6.960;2023-08-07T00:35:51;13.10;;;3.42;;
35245;SDS011;21379;50.962;6.960;2023-08-07T00:38:17;12.93;;;3.17;;
35245;SDS011;21379;50.962;6.960;2023-08-07T00:40:45;10.32;;;3.03;;
35245;SDS011;21379;50.962;6.960;2023-08-07T00:43:12;8.48;;;3.00;;
35245;SDS011;21379;50.962;6.960;2023-08-07T00:45:40;14.00;;;3.85;;
35245;SDS011;21379;50.962;6.960;2023-08-07T00:48:08;9.05;;;3.10;;
35245;SDS011;21379;50.962;6.960;2023-08-07T00:53:03;8.35;;;2.42;;
35245;SDS011;21379;50.962;6.960;2023-08-07T00:55:30;15.10;;;3.00;;
35245;SDS011;21379;50.962;6.960;2023-08-07T00:57:59;8.65;;;3.38;;
35245;SDS011;21379;50.962;6.960;2023-08-07T01:00:26;11.32;;;3.13;;
35245;SDS011;21379;50.962;6.960;2023-08-07T01:02:54;8.93;;;3.03;;
35245;SDS011;21379;50.962;6.960;2023-08-07T01:05:21;8.77;;;2.65;;
35245;SDS011;21379;50.962;6.960;2023-08-07T01:07:49;8.30;;;2.90;;
35245;SDS011;21379;50.962;6.960;2023-08-07T01:10:19;11.45;;;3.08;;
35245;SDS011;21379;50.962;6.960;2023-08-07T01:12:51;6.25;;;2.53;;
35245;SDS011;21379;50.962;6.960;2023-08-07T01:15:22;12.95;;;2.88;;
35245;SDS011;21379;50.962;6.960;2023-08-07T01:17:51;9.43;;;3.53;;
35245;SDS011;21379;50.962;6.960;2023-08-07T01:20:18;10.50;;;3.22;;
35245;SDS011;21379;50.962;6.960;2023-08-07T01:22:47;13.77;;;3.13;;
35245;SDS011;21379;50.962;6.960;2023-08-07T01:25:13;6.45;;;3.28;;
35245;SDS011;21379;50.962;6.960;2023-08-07T01:27:41;10.73;;;3.58;;
35245;SDS011;21379;50.962;6.960;2023-08-07T01:30:16;11.40;;;2.97;;
35245;SDS011;21379;50.962;6.960;2023-08-07T01:32:49;9.40;;;2.90;;
35245;SDS011;21379;50.962;6.960;2023-08-07T01:35:20;13.88;;;4.13;;
35245;SDS011;21379;50.962;6.960;2023-08-07T01:37:52;13.50;;;3.10;;
35245;SDS011;21379;50.962;6.960;2023-08-07T01:40:19;12.50;;;2.88;;
35245;SDS011;21379;50.962;6.960;2023-08-07T01:42:47;12.88;;;3.22;;
35245;SDS011;21379;50.962;6.960;2023-08-07T01:45:14;10.73;;;3.17;;
35245;SDS011;21379;50.962;6.960;2023-08-07T01:47:48;12.48;;;2.63;;
35245;SDS011;21379;50.962;6.960;2023-08-07T01:50:15;9.60;;;2.90;;
35245;SDS011;21379;50.962;6.960;2023-08-07T01:52:42;8.40;;;2.88;;
35245;SDS011;21379;50.962;6.960;2023-08-07T01:55:10;11.75;;;3.42;;
35245;SDS011;21379;50.962;6.960;2023-08-07T01:57:37;17.83;;;3.45;;
35245;SDS011;21379;50.962;6.960;2023-08-07T02:00:04;10.05;;;3.40;;
35245;SDS011;21379;50.962;6.960;2023-08-07T02:02:40;10.48;;;3.53;;
35245;SDS011;21379;50.962;6.960;2023-08-07T02:05:07;13.43;;;3.20;;
35245;SDS011;21379;50.962;6.960;2023-08-07T02:07:34;16.48;;;2.78;;
35245;SDS011;21379;50.962;6.960;2023-08-07T02:10:02;11.98;;;3.58;;
35245;SDS011;21379;50.962;6.960;2023-08-07T02:12:30;8.48;;;3.15;;
35245;SDS011;21379;50.962;6.960;2023-08-07T02:14:58;8.70;;;2.92;;
35245;SDS011;21379;50.962;6.960;2023-08-07T02:17:25;12.38;;;2.20;;
35245;SDS011;21379;50.962;6.960;2023-08-07T02:19:52;8.45;;;2.60;;
35245;SDS011;21379;50.962;6.960;2023-08-07T02:22:19;15.63;;;2.95;;
35245;SDS011;21379;50.962;6.960;2023-08-07T02:24:45;14.70;;;3.70;;
35245;SDS011;21379;50.962;6.960;2023-08-07T02:27:12;11.75;;;2.22;;
35245;SDS011;21379;50.962;6.960;2023-08-07T02:29:40;10.05;;;2.65;;
35245;SDS011;21379;50.962;6.960;2023-08-07T02:32:07;9.98;;;2.60;;
35245;SDS011;21379;50.962;6.960;2023-08-07T02:34:34;10.07;;;2.55;;
35245;SDS011;21379;50.962;6.960;2023-08-07T02:37:01;9.80;;;2.60;;
35245;SDS011;21379;50.962;6.960;2023-08-07T02:39:27;11.25;;;3.00;;
35245;SDS011;21379;50.962;6.960;2023-08-07T02:41:54;11.30;;;3.15;;
35245;SDS011;21379;50.962;6.960;2023-08-07T02:44:21;7.90;;;2.85;;
35245;SDS011;21379;50.962;6.960;2023-08-07T02:46:49;14.57;;;2.92;;
35245;SDS011;21379;50.962;6.960;2023-08-07T02:49:16;10.10;;;3.13;;
35245;SDS011;21379;50.962;6.960;2023-08-07T02:51:43;6.85;;;2.75;;
35245;SDS011;21379;50.962;6.960;2023-08-07T02:54:09;8.88;;;3.00;;
35245;SDS011;21379;50.962;6.960;2023-08-07T02:56:36;10.35;;;2.88;;
35245;SDS011;21379;50.962;6.960;2023-08-07T02:59:03;14.35;;;4.07;;
35245;SDS011;21379;50.962;6.960;2023-08-07T03:01:30;9.98;;;3.03;;
35245;SDS011;21379;50.962;6.960;2023-08-07T03:03:58;8.77;;;3.75;;
35245;SDS011;21379;50.962;6.960;2023-08-07T03:06:25;16.50;;;3.78;;
35245;SDS011;21379;50.962;6.960;2023-08-07T03:08:52;14.38;;;4.65;;
35245;SDS011;21379;50.962;6.960;2023-08-07T03:11:18;14.70;;;4.30;;
35245;SDS011;21379;50.962;6.960;2023-08-07T03:13:45;13.07;;;4.22;;
35245;SDS011;21379;50.962;6.960;2023-08-07T03:16:12;12.55;;;3.22;;
35245;SDS011;21379;50.962;6.960;2023-08-07T03:18:38;10.23;;;3.50;;
35245;SDS011;21379;50.962;6.960;2023-08-07T03:21:06;14.23;;;3.13;;
35245;SDS011;21379;50.962;6.960;2023-08-07T03:23:33;17.83;;;3.47;;
35245;SDS011;21379;50.962;6.960;2023-08-07T03:26:03;6.32;;;2.70;;
35245;SDS011;21379;50.962;6.960;2023-08-07T03:28:30;11.18;;;2.90;;
35245;SDS011;21379;50.962;6.960;2023-08-07T03:30:58;11.68;;;2.92;;
35245;SDS011;21379;50.962;6.960;2023-08-07T03:33:26;11.80;;;2.60;;
35245;SDS011;21379;50.962;6.960;2023-08-07T03:35:52;10.80;;;3.28;;
35245;SDS011;21379;50.962;6.960;2023-08-07T03:38:21;12.00;;;3.40;;
35245;SDS011;21379;50.962;6.960;2023-08-07T03:40:50;10.50;;;3.38;;
35245;SDS011;21379;50.962;6.960;2023-08-07T03:43:17;8.35;;;3.00;;
35245;SDS011;21379;50.962;6.960;2023-08-07T03:45:44;13.38;;;3.92;;
35245;SDS011;21379;50.962;6.960;2023-08-07T03:48:11;11.55;;;2.80;;
35245;SDS011;21379;50.962;6.960;2023-08-07T03:50:37;8.82;;;2.80;;
35245;SDS011;21379;50.962;6.960;2023-08-07T03:53:05;7.22;;;2.33;;
35245;SDS011;21379;50.962;6.960;2023-08-07T03:55:37;14.02;;;3.88;;
35245;SDS011;21379;50.962;6.960;2023-08-07T03:58:04;14.73;;;4.65;;
35245;SDS011;21379;50.962;6.960;2023-08-07T04:00:31;13.40;;;4.28;;
35245;SDS011;21379;50.962;6.960;2023-08-07T04:02:58;12.25;;;3.40;;
35245;SDS011;21379;50.962;6.960;2023-08-07T04:05:24;7.28;;;3.28;;
35245;SDS011;21379;50.962;6.960;2023-08-07T04:07:51;7.72;;;2.80;;
35245;SDS011;21379;50.962;6.960;2023-08-07T04:10:18;10.20;;;3.58;;
35245;SDS011;21379;50.962;6.960;2023-08-07T04:12:46;9.20;;;3.17;;
35245;SDS011;21379;50.962;6.960;2023-08-07T04:15:12;9.90;;;3.00;;
35245;SDS011;21379;50.962;6.960;2023-08-07T04:17:41;8.60;;;3.45;;
35245;SDS011;21379;50.962;6.960;2023-08-07T04:20:08;9.40;;;3.35;;
35245;SDS011;21379;50.962;6.960;2023-08-07T04:22:35;13.32;;;4.68;;
35245;SDS011;21379;50.962;6.960;2023-08-07T04:25:02;8.20;;;3.42;;
35245;SDS011;21379;50.962;6.960;2023-08-07T04:27:29;13.02;;;4.05;;
35245;SDS011;21379;50.962;6.960;2023-08-07T04:29:57;10.70;;;4.22;;
35245;SDS011;21379;50.962;6.960;2023-08-07T04:32:25;6.22;;;3.97;;
35245;SDS011;21379;50.962;6.960;2023-08-07T04:34:51;11.10;;;3.65;;
35245;SDS011;21379;50.962;6.960;2023-08-07T04:37:18;17.33;;;4.88;;
35245;SDS011;21379;50.962;6.960;2023-08-07T04:39:45;13.48;;;3.70;;
35245;SDS011;21379;50.962;6.960;2023-08-07T04:42:11;10.35;;;2.78;;
35245;SDS011;21379;50.962;6.960;2023-08-07T04:44:38;10.00;;;3.97;;
35245;SDS011;21379;50.962;6.960;2023-08-07T04:47:06;7.40;;;2.95;;
35245;SDS011;21379;50.962;6.960;2023-08-07T04:49:33;10.27;;;3.05;;
35245;SDS011;21379;50.962;6.960;2023-08-07T04:52:00;9.40;;;3.30;;
35245;SDS011;21379;50.962;6.960;2023-08-07T04:54:26;11.68;;;2.75;;
35245;SDS011;21379;50.962;6.960;2023-08-07T04:56:53;7.15;;;2.88;;
35245;SDS011;21379;50.962;6.960;2023-08-07T04:59:20;12.60;;;3.40;;
35245;SDS011;21379;50.962;6.960;2023-08-07T05:01:46;8.32;;;2.75;;
35245;SDS011;21379;50.962;6.960;2023-08-07T05:04:14;9.60;;;2.97;;
35245;SDS011;21379;50.962;6.960;2023-08-07T05:06:41;7.20;;;3.25;;
35245;SDS011;21379;50.962;6.960;2023-08-07T05:09:08;11.38;;;3.83;;
35245;SDS011;21379;50.962;6.960;2023-08-07T05:11:34;6.88;;;2.45;;
35245;SDS011;21379;50.962;6.960;2023-08-07T05:14:01;9.13;;;3.38;;
35245;SDS011;21379;50.962;6.960;2023-08-07T05:16:28;11.00;;;2.88;;
35245;SDS011;21379;50.962;6.960;2023-08-07T05:18:55;9.82;;;2.88;;
35245;SDS011;21379;50.962;6.960;2023-08-07T05:21:23;10.93;;;3.22;;
35245;SDS011;21379;50.962;6.960;2023-08-07T05:23:50;15.73;;;3.78;;
35245;SDS011;21379;50.962;6.960;2023-08-07T05:26:18;9.40;;;2.70;;
35245;SDS011;21379;50.962;6.960;2023-08-07T05:28:45;9.23;;;2.95;;
35245;SDS011;21379;50.962;6.960;2023-08-07T05:31:12;8.45;;;2.92;;
35245;SDS011;21379;50.962;6.960;2023-08-07T05:33:38;7.07;;;3.00;;
35245;SDS011;21379;50.962;6.960;2023-08-07T05:36:05;6.35;;;1.95;;
35245;SDS011;21379;50.962;6.960;2023-08-07T05:38:34;5.63;;;2.88;;
35245;SDS011;21379;50.962;6.960;2023-08-07T05:41:00;5.43;;;2.25;;
35245;SDS011;21379;50.962;6.960;2023-08-07T05:43:27;10.63;;;2.80;;
35245;SDS011;21379;50.962;6.960;2023-08-07T05:45:54;8.68;;;2.60;;
35245;SDS011;21379;50.962;6.960;2023-08-07T05:48:20;10.38;;;3.40;;
35245;SDS011;21379;50.962;6.960;2023-08-07T05:50:47;7.20;;;2.00;;
35245;SDS011;21379;50.962;6.960;2023-08-07T05:53:14;7.82;;;3.10;;
35245;SDS011;21379;50.962;6.960;2023-08-07T05:55:42;7.43;;;2.50;;
35245;SDS011;21379;50.962;6.960;2023-08-07T05:58:08;9.13;;;2.60;;
35245;SDS011;21379;50.962;6.960;2023-08-07T06:00:35;9.07;;;2.58;;
35245;SDS011;21379;50.962;6.960;2023-08-07T06:03:02;5.63;;;2.15;;
35245;SDS011;21379;50.962;6.960;2023-08-07T06:05:32;9.27;;;2.95;;
35245;SDS011;21379;50.962;6.960;2023-08-07T06:07:59;8.13;;;2.35;;
35245;SDS011;21379;50.962;6.960;2023-08-07T06:10:26;5.78;;;2.40;;
35245;SDS011;21379;50.962;6.960;2023-08-07T06:12:54;7.20;;;2.42;;
35245;SDS011;21379;50.962;6.960;2023-08-07T06:15:20;9.57;;;2.58;;
35245;SDS011;21379;50.962;6.960;2023-08-07T06:17:47;8.02;;;2.40;;
35245;SDS011;21379;50.962;6.960;2023-08-07T06:20:16;10.23;;;3.40;;
35245;SDS011;21379;50.962;6.960;2023-08-07T06:22:43;11.10;;;4.07;;
35245;SDS011;21379;50.962;6.960;2023-08-07T06:25:09;6.25;;;2.70;;
35245;SDS011;21379;50.962;6.960;2023-08-07T06:27:36;5.90;;;3.03;;
35245;SDS011;21379;50.962;6.960;2023-08-07T06:30:05;11.43;;;3.25;;
35245;SDS011;21379;50.962;6.960;2023-08-07T06:32:32;8.18;;;2.78;;
35245;SDS011;21379;50.962;6.960;2023-08-07T06:34:58;10.00;;;2.50;;
35245;SDS011;21379;50.962;6.960;2023-08-07T06:37:25;8.75;;;3.33;;
35245;SDS011;21379;50.962;6.960;2023-08-07T06:39:52;8.27;;;2.90;;
35245;SDS011;21379;50.962;6.960;2023-08-07T06:42:19;8.20;;;2.80;;
35245;SDS011;21379;50.962;6.960;2023-08-07T06:44:46;9.90;;;3.03;;
35245;SDS011;21379;50.962;6.960;2023-08-07T06:47:14;7.47;;;3.00;;
35245;SDS011;21379;50.962;6.960;2023-08-07T06:49:41;9.05;;;3.38;;
35245;SDS011;21379;50.962;6.960;2023-08-07T06:52:08;11.35;;;3.08;;
35245;SDS011;21379;50.962;6.960;2023-08-07T06:54:34;6.38;;;2.78;;
35245;SDS011;21379;50.962;6.960;2023-08-07T06:57:01;6.22;;;1.95;;
35245;SDS011;21379;50.962;6.960;2023-08-07T06:59:28;15.23;;;3.53;;
35245;SDS011;21379;50.962;6.960;2023-08-07T07:01:55;9.15;;;2.78;;
35245;SDS011;21379;50.962;6.960;2023-08-07T07:04:23;9.00;;;3.17;;
35245;SDS011;21379;50.962;6.960;2023-08-07T07:06:49;12.60;;;3.67;;
35245;SDS011;21379;50.962;6.960;2023-08-07T07:09:16;10.15;;;3.17;;
35245;SDS011;21379;50.962;6.960;2023-08-07T07:11:43;10.82;;;3.60;;
35245;SDS011;21379;50.962;6.960;2023-08-07T07:14:10;14.80;;;3.85;;
35245;SDS011;21379;50.962;6.960;2023-08-07T07:16:37;10.55;;;3.88;;
35245;SDS011;21379;50.962;6.960;2023-08-07T07:19:04;11.40;;;3.75;;
35245;SDS011;21379;50.962;6.960;2023-08-07T07:21:34;10.70;;;2.90;;
35245;SDS011;21379;50.962;6.960;2023-08-07T07:24:01;10.38;;;3.38;;
35245;SDS011;21379;50.962;6.960;2023-08-07T07:26:28;16.02;;;4.32;;
35245;SDS011;21379;50.962;6.960;2023-08-07T07:28:54;14.23;;;3.20;;
35245;SDS011;21379;50.962;6.960;2023-08-07T07:31:21;11.02;;;3.60;;
35245;SDS011;21379;50.962;6.960;2023-08-07T07:33:48;12.73;;;3.63;;
35245;SDS011;21379;50.962;6.960;2023-08-07T07:36:15;9.90;;;3.83;;
35245;SDS011;21379;50.962;6.960;2023-08-07T07:38:44;9.82;;;3.42;;
35245;SDS011;21379;50.962;6.960;2023-08-07T07:41:11;14.93;;;3.75;;
35245;SDS011;21379;50.962;6.960;2023-08-07T07:43:38;7.22;;;3.40;;
35245;SDS011;21379;50.962;6.960;2023-08-07T07:46:05;11.52;;;4.88;;
35245;SDS011;21379;50.962;6.960;2023-08-07T07:48:31;10.73;;;3.50;;
35245;SDS011;21379;50.962;6.960;2023-08-07T07:50:58;13.07;;;3.08;;
35245;SDS011;21379;50.962;6.960;2023-08-07T07:53:25;9.85;;;3.65;;
35245;SDS011;21379;50.962;6.960;2023-08-07T07:55:53;8.93;;;3.60;;
35245;SDS011;21379;50.962;6.960;2023-08-07T07:58:21;10.55;;;3.38;;
35245;SDS011;21379;50.962;6.960;2023-08-07T08:00:47;8.57;;;4.00;;
35245;SDS011;21379;50.962;6.960;2023-08-07T08:03:14;9.88;;;3.20;;
35245;SDS011;21379;50.962;6.960;2023-08-07T08:05:41;11.57;;;2.67;;
35245;SDS011;21379;50.962;6.960;2023-08-07T08:08:08;10.48;;;3.13;;
35245;SDS011;21379;50.962;6.960;2023-08-07T08:10:35;8.25;;;2.78;;
35245;SDS011;21379;50.962;6.960;2023-08-07T08:13:03;11.60;;;3.30;;
35245;SDS011;21379;50.962;6.960;2023-08-07T08:15:29;6.03;;;2.83;;
35245;SDS011;21379;50.962;6.960;2023-08-07T08:17:56;10.10;;;2.70;;
35245;SDS011;21379;50.962;6.960;2023-08-07T08:20:23;7.60;;;2.90;;
35245;SDS011;21379;50.962;6.960;2023-08-07T08:22:49;8.85;;;3.08;;
35245;SDS011;21379;50.962;6.960;2023-08-07T08:25:16;11.10;;;3.08;;
35245;SDS011;21379;50.962;6.960;2023-08-07T08:27:43;7.03;;;2.50;;
35245;SDS011;21379;50.962;6.960;2023-08-07T08:30:12;9.73;;;3.05;;
35245;SDS011;21379;50.962;6.960;2023-08-07T08:32:39;10.05;;;3.00;;
35245;SDS011;21379;50.962;6.960;2023-08-07T08:35:06;9.68;;;2.95;;
35245;SDS011;21379;50.962;6.960;2023-08-07T08:37:33;8.90;;;2.85;;
35245;SDS011;21379;50.962;6.960;2023-08-07T08:39:59;15.75;;;3.40;;
35245;SDS011;21379;50.962;6.960;2023-08-07T08:42:26;14.43;;;4.18;;
35245;SDS011;21379;50.962;6.960;2023-08-07T08:44:54;9.55;;;3.40;;
35245;SDS011;21379;50.962;6.960;2023-08-07T08:47:24;12.10;;;2.60;;
35245;SDS011;21379;50.962;6.960;2023-08-07T08:49:53;6.95;;;2.83;;
35245;SDS011;21379;50.962;6.960;2023-08-07T08:52:22;7.68;;;3.10;;
35245;SDS011;21379;50.962;6.960;2023-08-07T08:54:49;16.38;;;3.95;;
35245;SDS011;21379;50.962;6.960;2023-08-07T08:57:16;10.20;;;2.90;;
35245;SDS011;21379;50.962;6.960;2023-08-07T08:59:43;16.52;;;3.97;;
35245;SDS011;21379;50.962;6.960;2023-08-07T09:02:10;12.13;;;3.10;;
35245;SDS011;21379;50.962;6.960;2023-08-07T09:04:38;11.43;;;2.92;;
35245;SDS011;21379;50.962;6.960;2023-08-07T09:07:07;14.35;;;3.58;;
35245;SDS011;21379;50.962;6.960;2023-08-07T09:09:34;15.93;;;2.85;;
35245;SDS011;21379;50.962;6.960;2023-08-07T09:12:01;8.48;;;3.03;;
35245;SDS011;21379;50.962;6.960;2023-08-07T09:14:30;10.80;;;3.58;;
35245;SDS011;21379;50.962;6.960;2023-08-07T09:16:59;6.90;;;2.72;;
35245;SDS011;21379;50.962;6.960;2023-08-07T09:19:26;11.23;;;3.22;;
35245;SDS011;21379;50.962;6.960;2023-08-07T09:21:54;11.23;;;3.10;;
35245;SDS011;21379;50.962;6.960;2023-08-07T09:24:21;8.75;;;2.45;;
35245;SDS011;21379;50.962;6.960;2023-08-07T09:26:47;6.55;;;2.67;;
35245;SDS011;21379;50.962;6.960;2023-08-07T09:29:14;4.93;;;2.17;;
35245;SDS011;21379;50.962;6.960;2023-08-07T09:31:42;8.18;;;2.78;;
35245;SDS011;21379;50.962;6.960;2023-08-07T09:34:10;8.93;;;2.47;;
35245;SDS011;21379;50.962;6.960;2023-08-07T09:36:39;9.27;;;2.65;;
35245;SDS011;21379;50.962;6.960;2023-08-07T09:39:07;5.60;;;2.05;;
35245;SDS011;21379;50.962;6.960;2023-08-07T09:41:35;8.43;;;2.00;;
35245;SDS011;21379;50.962;6.960;2023-08-07T09:44:05;8.23;;;2.17;;
35245;SDS011;21379;50.962;6.960;2023-08-07T09:46:33;3.90;;;1.70;;
35245;SDS011;21379;50.962;6.960;2023-08-07T09:49:07;4.00;;;1.85;;
35245;SDS011;21379;50.962;6.960;2023-08-07T09:51:40;6.45;;;2.03;;
35245;SDS011;21379;50.962;6.960;2023-08-07T09:54:09;7.63;;;1.70;;
35245;SDS011;21379;50.962;6.960;2023-08-07T09:56:36;6.75;;;1.65;;
35245;SDS011;21379;50.962;6.960;2023-08-07T09:59:04;4.82;;;1.98;;
35245;SDS011;21379;50.962;6.960;2023-08-07T10:01:31;9.18;;;2.60;;
35245;SDS011;21379;50.962;6.960;2023-08-07T10:03:58;6.30;;;2.08;;
35245;SDS011;21379;50.962;6.960;2023-08-07T10:06:25;3.35;;;1.45;;
35245;SDS011;21379;50.962;6.960;2023-08-07T10:08:51;9.18;;;1.63;;
35245;SDS011;21379;50.962;6.960;2023-08-07T10:11:20;5.10;;;1.40;;
35245;SDS011;21379;50.962;6.960;2023-08-07T10:13:47;4.95;;;1.80;;
35245;SDS011;21379;50.962;6.960;2023-08-07T10:16:14;7.05;;;1.25;;
35245;SDS011;21379;50.962;6.960;2023-08-07T10:18:41;6.78;;;1.95;;
35245;SDS011;21379;50.962;6.960;2023-08-07T10:21:07;6.70;;;1.98;;
35245;SDS011;21379;50.962;6.960;2023-08-07T10:23:34;5.18;;;1.77;;
35245;SDS011;21379;50.962;6.960;2023-08-07T10:26:02;9.68;;;2.05;;
35245;SDS011;21379;50.962;6.960;2023-08-07T10:28:31;5.45;;;1.80;;
35245;SDS011;21379;50.962;6.960;2023-08-07T10:30:59;5.15;;;1.40;;
35245;SDS011;21379;50.962;6.960;2023-08-07T10:33:26;5.28;;;1.90;;
35245;SDS011;21379;50.962;6.960;2023-08-07T10:35:53;4.28;;;1.35;;
35245;SDS011;21379;50.962;6.960;2023-08-07T10:38:22;5.68;;;1.77;;
35245;SDS011;21379;50.962;6.960;2023-08-07T10:40:58;5.30;;;1.77;;
35245;SDS011;21379;50.962;6.960;2023-08-07T10:43:26;9.45;;;2.25;;
35245;SDS011;21379;50.962;6.960;2023-08-07T10:46:01;4.22;;;1.67;;
35245;SDS011;21379;50.962;6.960;2023-08-07T10:48:29;6.03;;;1.40;;
35245;SDS011;21379;50.962;6.960;2023-08-07T10:50:56;4.90;;;1.30;;
35245;SDS011;21379;50.962;6.960;2023-08-07T10:53:28;7.25;;;1.75;;
35245;SDS011;21379;50.962;6.960;2023-08-07T10:55:56;6.65;;;1.20;;
35245;SDS011;21379;50.962;6.960;2023-08-07T10:58:24;6.40;;;1.30;;
35245;SDS011;21379;50.962;6.960;2023-08-07T11:00:52;4.22;;;1.23;;
35245;SDS011;21379;50.962;6.960;2023-08-07T11:03:27;6.47;;;1.60;;
35245;SDS011;21379;50.962;6.960;2023-08-07T11:05:54;3.88;;;1.17;;
35245;SDS011;21379;50.962;6.960;2023-08-07T11:08:23;5.15;;;1.60;;
35245;SDS011;21379;50.962;6.960;2023-08-07T11:10:50;6.43;;;1.50;;
35245;SDS011;21379;50.962;6.960;2023-08-07T11:13:17;7.40;;;1.58;;
35245;SDS011;21379;50.962;6.960;2023-08-07T11:15:45;5.35;;;1.65;;
35245;SDS011;21379;50.962;6.960;2023-08-07T11:18:12;3.53;;;1.30;;
35245;SDS011;21379;50.962;6.960;2023-08-07T11:20:41;6.82;;;1.33;;
35245;SDS011;21379;50.962;6.960;2023-08-07T11:23:07;5.30;;;1.33;;
35245;SDS011;21379;50.962;6.960;2023-08-07T11:25:34;6.88;;;1.75;;
35245;SDS011;21379;50.962;6.960;2023-08-07T11:30:28;2.55;;;1.17;;
35245;SDS011;21379;50.962;6.960;2023-08-07T11:32:56;2.97;;;1.33;;
35245;SDS011;21379;50.962;6.960;2023-08-07T11:35:23;2.92;;;1.33;;
35245;SDS011;21379;50.962;6.960;2023-08-07T11:37:51;5.57;;;1.42;;
35245;SDS011;21379;50.962;6.960;2023-08-07T11:40:19;3.70;;;1.50;;
35245;SDS011;21379;50.962;6.960;2023-08-07T11:42:46;6.63;;;1.70;;
35245;SDS011;21379;50.962;6.960;2023-08-07T11:45:12;6.72;;;1.55;;
35245;SDS011;21379;50.962;6.960;2023-08-07T11:50:07;4.32;;;1.20;;
35245;SDS011;21379;50.962;6.960;2023-08-07T11:52:35;6.22;;;1.60;;
35245;SDS011;21379;50.962;6.960;2023-08-07T11:55:04;4.13;;;1.23;;
35245;SDS011;21379;50.962;6.960;2023-08-07T11:57:32;5.20;;;1.40;;
35245;SDS011;21379;50.962;6.960;2023-08-07T11:59:59;5.30;;;1.52;;
35245;SDS011;21379;50.962;6.960;2023-08-07T12:02:25;5.80;;;1.52;;
35245;SDS011;21379;50.962;6.960;2023-08-07T12:04:56;3.50;;;1.65;;
35245;SDS011;21379;50.962;6.960;2023-08-07T12:07:24;8.35;;;1.95;;
35245;SDS011;21379;50.962;6.960;2023-08-07T12:09:51;3.75;;;1.67;;
35245;SDS011;21379;50.962;6.960;2023-08-07T12:12:21;8.00;;;1.85;;
35245;SDS011;21379;50.962;6.960;2023-08-07T12:14:51;4.75;;;1.58;;
35245;SDS011;21379;50.962;6.960;2023-08-07T12:17:19;6.15;;;2.20;;
35245;SDS011;21379;50.962;6.960;2023-08-07T12:19:47;3.20;;;1.60;;
35245;SDS011;21379;50.962;6.960;2023-08-07T12:22:18;7.60;;;2.03;;
35245;SDS011;21379;50.962;6.960;2023-08-07T12:24:45;5.38;;;1.92;;
35245;SDS011;21379;50.962;6.960;2023-08-07T12:27:12;3.80;;;1.63;;
35245;SDS011;21379;50.962;6.960;2023-08-07T12:29:40;6.47;;;1.48;;
35245;SDS011;21379;50.962;6.960;2023-08-07T12:32:07;5.45;;;1.40;;
35245;SDS011;21379;50.962;6.960;2023-08-07T12:37:01;3.97;;;1.40;;
35245;SDS011;21379;50.962;6.960;2023-08-07T12:39:28;4.57;;;1.65;;
35245;SDS011;21379;50.962;6.960;2023-08-07T12:41:54;6.88;;;1.83;;
35245;SDS011;21379;50.962;6.960;2023-08-07T12:44:23;5.90;;;2.20;;
35245;SDS011;21379;50.962;6.960;2023-08-07T12:46:51;6.13;;;1.90;;
35245;SDS011;21379;50.962;6.960;2023-08-07T12:49:17;4.88;;;1.90;;
35245;SDS011;21379;50.962;6.960;2023-08-07T12:51:44;11.43;;;2.10;;
35245;SDS011;21379;50.962;6.960;2023-08-07T12:54:11;4.00;;;1.90;;
35245;SDS011;21379;50.962;6.960;2023-08-07T12:56:38;4.95;;;1.45;;
35245;SDS011;21379;50.962;6.960;2023-08-07T12:59:04;5.53;;;1.52;;
35245;SDS011;21379;50.962;6.960;2023-08-07T13:01:32;3.00;;;1.95;;
35245;SDS011;21379;50.962;6.960;2023-08-07T13:04:00;3.20;;;1.73;;
35245;SDS011;21379;50.962;6.960;2023-08-07T13:06:28;5.47;;;2.15;;
35245;SDS011;21379;50.962;6.960;2023-08-07T13:08:55;4.53;;;1.60;;
35245;SDS011;21379;50.962;6.960;2023-08-07T13:11:22;5.88;;;1.70;;
35245;SDS011;21379;50.962;6.960;2023-08-07T13:13:48;4.80;;;1.70;;
35245;SDS011;21379;50.962;6.960;2023-08-07T13:16:15;6.55;;;2.58;;
35245;SDS011;21379;50.962;6.960;2023-08-07T13:18:45;5.15;;;1.58;;
35245;SDS011;21379;50.962;6.960;2023-08-07T13:21:13;6.57;;;1.58;;
35245;SDS011;21379;50.962;6.960;2023-08-07T13:23:40;2.47;;;1.58;;
35245;SDS011;21379;50.962;6.960;2023-08-07T13:26:12;3.38;;;1.85;;
35245;SDS011;21379;50.962;6.960;2023-08-07T13:28:45;8.07;;;2.05;;
35245;SDS011;21379;50.962;6.960;2023-08-07T13:31:15;4.10;;;1.40;;
35245;SDS011;21379;50.962;6.960;2023-08-07T13:33:41;5.78;;;2.20;;
35245;SDS011;21379;50.962;6.960;2023-08-07T13:36:08;5.95;;;1.60;;
35245;SDS011;21379;50.962;6.960;2023-08-07T13:38:36;3.35;;;1.60;;
35245;SDS011;21379;50.962;6.960;2023-08-07T13:41:03;6.53;;;1.58;;
35245;SDS011;21379;50.962;6.960;2023-08-07T13:43:30;5.40;;;1.73;;
35245;SDS011;21379;50.962;6.960;2023-08-07T13:45:56;4.28;;;1.50;;
35245;SDS011;21379;50.962;6.960;2023-08-07T13:48:23;5.60;;;1.60;;
35245;SDS011;21379;50.962;6.960;2023-08-07T13:50:51;6.25;;;1.70;;
35245;SDS011;21379;50.962;6.960;2023-08-07T13:53:18;3.38;;;1.52;;
35245;SDS011;21379;50.962;6.960;2023-08-07T13:55:47;5.97;;;1.75;;
35245;SDS011;21379;50.962;6.960;2023-08-07T13:58:13;4.82;;;2.03;;
35245;SDS011;21379;50.962;6.960;2023-08-07T14:03:10;7.10;;;1.67;;
35245;SDS011;21379;50.962;6.960;2023-08-07T14:05:38;3.78;;;1.35;;
35245;SDS011;21379;50.962;6.960;2023-08-07T14:08:05;5.35;;;1.75;;
35245;SDS011;21379;50.962;6.960;2023-08-07T14:10:35;2.92;;;1.92;;
35245;SDS011;21379;50.962;6.960;2023-08-07T14:13:05;4.78;;;1.50;;
35245;SDS011;21379;50.962;6.960;2023-08-07T14:15:32;5.25;;;1.67;;
35245;SDS011;21379;50.962;6.960;2023-08-07T14:17:58;4.88;;;1.50;;
35245;SDS011;21379;50.962;6.960;2023-08-07T14:20:25;4.57;;;2.03;;
35245;SDS011;21379;50.962;6.960;2023-08-07T14:22:52;6.10;;;1.80;;
35245;SDS011;21379;50.962;6.960;2023-08-07T14:25:18;5.80;;;2.08;;
35245;SDS011;21379;50.962;6.960;2023-08-07T14:27:46;4.05;;;1.98;;
35245;SDS011;21379;50.962;6.960;2023-08-07T14:30:14;3.65;;;1.77;;
35245;SDS011;21379;50.962;6.960;2023-08-07T14:32:41;6.63;;;1.80;;
35245;SDS011;21379;50.962;6.960;2023-08-07T14:35:08;4.63;;;2.03;;
35245;SDS011;21379;50.962;6.960;2023-08-07T14:37:35;2.35;;;1.45;;
35245;SDS011;21379;50.962;6.960;2023-08-07T14:40:02;4.85;;;1.92;;
35245;SDS011;21379;50.962;6.960;2023-08-07T14:42:29;3.08;;;2.08;;
35245;SDS011;21379;50.962;6.960;2023-08-07T14:44:55;5.57;;;1.77;;
35245;SDS011;21379;50.962;6.960;2023-08-07T14:47:23;5.80;;;2.00;;
35245;SDS011;21379;50.962;6.960;2023-08-07T14:49:50;4.97;;;1.88;;
35245;SDS011;21379;50.962;6.960;2023-08-07T14:52:17;5.35;;;2.22;;
35245;SDS011;21379;50.962;6.960;2023-08-07T14:54:44;4.40;;;1.58;;
35245;SDS011;21379;50.962;6.960;2023-08-07T14:57:10;3.05;;;1.77;;